createdAt,value
2023-02-15T00:01:08.793Z,102478.06
2023-02-15T00:06:03.573Z,102472.03
2023-02-15T00:11:07.742Z,102506.28
2023-02-15T00:16:04.200Z,102488.31
2023-02-15T00:20:57.598Z,102481.47
2023-02-15T00:25:52.447Z,102465.25
2023-02-15T00:30:45.977Z,102600.41
2023-02-15T00:35:39.675Z,102582.47
2023-02-15T00:40:33.214Z,102548.25
2023-02-15T00:45:27.950Z,102553.41
2023-02-15T00:50:23.790Z,102559.41
2023-02-15T00:55:17.346Z,102573.09
2023-02-15T01:00:11.758Z,102437.81
2023-02-15T01:05:08.718Z,102585.03
2023-02-15T01:10:01.916Z,102485.66
2023-02-15T01:14:55.224Z,102418.00
2023-02-15T01:19:48.378Z,102512.97
2023-02-15T01:24:43.946Z,102547.19
2023-02-15T01:29:37.347Z,102590.78
2023-02-15T01:34:31.518Z,102495.72
2023-02-15T01:39:25.041Z,102501.69
2023-02-15T01:44:50.285Z,102599.31
2023-02-15T01:49:44.571Z,102512.69
2023-02-15T01:54:40.974Z,102503.19
2023-02-15T01:59:38.310Z,102549.44
2023-02-15T02:04:37.825Z,102548.63
2023-02-15T02:09:31.920Z,102458.59
2023-02-15T02:14:27.030Z,102521.19
2023-02-15T02:19:51.534Z,102437.16
2023-02-15T02:25:21.649Z,102563.09
2023-02-15T02:30:48.873Z,102455.88
2023-02-15T02:35:51.615Z,102511.47
2023-02-15T02:40:55.232Z,102624.56
2023-02-15T02:45:55.789Z,102599.63
2023-02-15T02:50:52.128Z,102627.84
2023-02-15T02:55:50.236Z,102600.31
2023-02-15T03:00:48.529Z,102635.47
2023-02-15T03:05:49.578Z,102513.66
2023-02-15T03:10:44.408Z,102506.69
2023-02-15T03:15:58.782Z,102636.22
2023-02-15T03:20:54.642Z,102594.94
2023-02-15T03:25:56.944Z,102618.03
2023-02-15T03:30:56.005Z,102650.63
2023-02-15T03:35:55.049Z,102653.09
2023-02-15T03:41:09.818Z,102597.25
2023-02-15T03:46:11.143Z,102651.31
2023-02-15T03:51:26.783Z,102653.00
2023-02-15T03:56:21.476Z,102613.53
2023-02-15T04:01:44.638Z,102635.81
2023-02-15T04:06:37.903Z,102618.63
2023-02-15T04:11:34.333Z,102540.47
2023-02-15T04:16:29.689Z,102553.31
2023-02-15T04:21:44.290Z,102662.31
2023-02-15T04:26:39.037Z,102477.78
2023-02-15T04:31:32.541Z,102582.38
2023-02-15T04:36:28.208Z,102466.41
2023-02-15T04:41:21.548Z,102518.69
2023-02-15T04:46:16.259Z,102687.69
2023-02-15T04:51:10.544Z,102545.03
2023-02-15T04:56:03.894Z,102569.91
2023-02-15T05:00:58.401Z,102695.25
2023-02-15T05:05:53.140Z,102638.59
2023-02-15T05:10:46.563Z,102697.06
2023-02-15T05:15:39.954Z,102688.41
2023-02-15T05:20:33.281Z,102666.19
2023-02-15T05:25:45.686Z,102677.31
2023-02-15T05:30:40.952Z,102582.84
2023-02-15T05:35:35.004Z,102637.03
2023-02-15T05:40:30.052Z,102729.88
2023-02-15T05:45:23.439Z,102601.88
2023-02-15T05:50:17.091Z,102604.44
2023-02-15T05:55:10.827Z,102741.97
2023-02-15T06:00:09.535Z,102712.69
2023-02-15T06:05:06.240Z,102735.09
2023-02-15T06:09:59.544Z,102749.78
2023-02-15T06:14:52.789Z,102709.53
2023-02-15T06:19:47.353Z,102766.22
2023-02-15T06:24:40.422Z,102711.41
2023-02-15T06:29:33.573Z,102766.50
2023-02-15T06:34:26.886Z,102764.94
2023-02-15T06:39:21.411Z,102778.72
2023-02-15T06:44:14.637Z,102765.91
2023-02-15T06:49:07.866Z,102755.66
2023-02-15T06:54:01.238Z,102753.16
2023-02-15T06:58:55.736Z,102694.84
2023-02-15T07:03:48.823Z,102773.88
2023-02-15T07:08:42.244Z,102744.84
2023-02-15T07:13:35.407Z,102765.50
2023-02-15T07:18:30.055Z,102772.44
2023-02-15T07:23:23.276Z,102643.06
2023-02-15T07:28:17.016Z,102768.31
2023-02-15T07:33:30.137Z,102755.53
2023-02-15T07:38:24.727Z,102728.97
2023-02-15T07:43:17.943Z,102759.81
2023-02-15T07:48:11.315Z,102593.63
2023-02-15T07:53:06.370Z,102680.97
2023-02-15T07:58:00.904Z,102734.91
2023-02-15T08:03:09.498Z,102726.28
2023-02-15T08:08:02.648Z,102761.31
2023-02-15T08:12:55.809Z,102744.13
2023-02-15T08:17:50.245Z,102752.56
2023-02-15T08:22:43.368Z,102757.63
2023-02-15T08:27:36.491Z,102732.66
2023-02-15T08:32:29.972Z,102759.91
2023-02-15T08:37:27.116Z,102735.78
2023-02-15T08:42:21.766Z,102751.00
2023-02-15T08:47:15.087Z,102719.19
2023-02-15T08:52:08.590Z,102742.97
2023-02-15T08:57:03.111Z,102755.69
2023-02-15T09:01:56.768Z,102749.50
2023-02-15T09:06:52.063Z,102751.88
2023-02-15T09:11:47.752Z,102725.00
2023-02-15T09:16:43.632Z,102712.50
2023-02-15T09:21:39.627Z,102661.34
2023-02-15T09:26:36.050Z,102745.09
2023-02-15T09:31:31.387Z,102713.16
2023-02-15T09:36:28.022Z,102717.16
2023-02-15T09:41:39.097Z,102617.00
2023-02-15T09:46:49.835Z,102718.59
2023-02-15T09:52:06.128Z,102734.16
2023-02-15T09:57:04.534Z,102699.56
2023-02-15T10:02:11.832Z,102725.41
2023-02-15T10:07:23.059Z,102689.75
2023-02-15T10:12:42.556Z,102712.00
2023-02-15T10:17:57.788Z,102689.50
2023-02-15T10:23:11.849Z,102703.88
2023-02-15T10:28:08.437Z,102694.47
2023-02-15T10:33:11.309Z,102649.94
2023-02-15T10:38:22.234Z,102663.84
2023-02-15T10:43:26.736Z,102694.53
2023-02-15T10:48:40.190Z,102555.41
2023-02-15T10:54:00.183Z,102634.47
2023-02-15T10:59:13.785Z,102647.38
2023-02-15T11:04:38.166Z,102673.00
2023-02-15T11:09:52.637Z,102592.03
2023-02-15T11:14:52.681Z,102642.00
2023-02-15T11:19:57.695Z,102629.63
2023-02-15T11:24:55.539Z,102622.91
2023-02-15T11:29:57.457Z,102598.41
2023-02-15T11:34:55.864Z,102587.19
2023-02-15T11:39:52.721Z,102598.59
2023-02-15T11:45:01.125Z,102626.44
2023-02-15T11:49:54.298Z,102618.44
2023-02-15T11:54:51.715Z,102623.19
2023-02-15T11:59:53.261Z,102600.69
2023-02-15T12:04:52.014Z,102594.25
2023-02-15T12:09:50.477Z,102574.69
2023-02-15T12:14:51.508Z,102562.34
2023-02-15T12:19:46.470Z,102589.00
2023-02-15T12:24:46.384Z,102424.25
2023-02-15T12:29:44.229Z,102524.44
2023-02-15T12:34:43.988Z,102554.28
2023-02-15T12:39:52.390Z,102578.84
2023-02-15T12:44:59.613Z,102535.13
2023-02-15T12:50:17.846Z,102586.13
2023-02-15T12:55:23.540Z,102580.09
2023-02-15T13:00:33.098Z,102578.19
2023-02-15T13:05:32.940Z,102579.16
2023-02-15T13:10:30.455Z,102567.13
2023-02-15T13:15:31.605Z,102503.25
2023-02-15T13:20:25.599Z,102558.53
2023-02-15T13:25:26.589Z,102555.09
2023-02-15T13:30:27.449Z,102560.09
2023-02-15T13:35:21.853Z,102545.91
2023-02-15T13:40:21.479Z,102497.84
2023-02-15T13:45:32.692Z,102544.34
2023-02-15T13:50:46.684Z,102532.75
2023-02-15T13:55:42.748Z,102542.94
2023-02-15T14:00:47.677Z,102490.13
2023-02-15T14:05:59.072Z,102543.63
2023-02-15T14:11:01.910Z,102515.53
2023-02-15T14:16:03.664Z,102548.00
2023-02-15T14:21:07.552Z,102526.91
2023-02-15T14:26:06.142Z,102548.38
2023-02-15T14:31:01.405Z,102517.13
2023-02-15T14:35:57.937Z,102555.56
2023-02-15T14:41:04.998Z,102549.75
2023-02-15T14:46:05.546Z,102550.88
2023-02-15T14:50:58.968Z,102510.13
2023-02-15T14:56:09.271Z,102543.41
2023-02-15T15:01:09.694Z,102548.88
2023-02-15T15:06:06.364Z,102547.38
2023-02-15T15:11:43.948Z,102529.72
2023-02-15T15:16:53.796Z,102540.09
2023-02-15T15:21:57.590Z,102513.34
2023-02-15T15:26:51.851Z,102545.16
2023-02-15T15:31:50.285Z,102544.63
2023-02-15T15:37:22.845Z,102541.56
2023-02-15T15:42:34.727Z,102554.19
2023-02-15T15:47:56.165Z,102562.56
2023-02-15T15:53:08.313Z,102555.44
2023-02-15T15:58:05.669Z,102469.06
2023-02-15T16:02:59.262Z,102563.84
2023-02-15T16:07:53.409Z,102563.31
2023-02-15T16:12:50.950Z,102486.94
2023-02-15T16:17:52.100Z,102463.25
2023-02-15T16:22:49.276Z,102584.31
2023-02-15T16:27:44.835Z,102486.28
2023-02-15T16:39:20.070Z,102595.38
2023-02-15T16:44:19.357Z,102396.28
2023-02-15T16:49:20.237Z,102495.28
2023-02-15T16:54:24.785Z,102581.03
2023-02-15T16:59:34.989Z,102587.41
2023-02-15T17:04:35.683Z,102493.22
2023-02-15T17:09:29.529Z,102485.78
2023-02-15T17:14:29.015Z,102511.53
2023-02-15T17:19:27.276Z,102567.16
2023-02-15T17:24:31.247Z,102582.88
2023-02-15T17:29:36.797Z,102541.28
2023-02-15T17:34:47.171Z,102606.44
2023-02-15T17:39:42.624Z,102613.72
2023-02-15T17:44:37.237Z,102608.09
2023-02-15T17:49:34.975Z,102526.31
2023-02-15T17:54:48.017Z,102489.00
2023-02-15T18:00:01.634Z,102625.72
2023-02-15T18:05:18.002Z,102485.06
2023-02-15T18:10:34.170Z,102551.16
2023-02-15T18:15:29.262Z,102617.19
2023-02-15T18:20:27.123Z,102419.16
2023-02-15T18:25:25.526Z,102514.91
2023-02-15T18:30:21.888Z,102620.13
2023-02-15T18:35:18.731Z,102526.16
2023-02-15T18:40:17.786Z,102639.09
2023-02-15T18:45:17.114Z,102553.66
2023-02-15T18:50:11.310Z,102612.81
2023-02-15T18:55:15.316Z,102563.34
2023-02-15T19:00:15.672Z,102636.13
2023-02-15T19:05:09.474Z,102608.81
2023-02-15T19:10:10.457Z,102608.88
2023-02-15T19:15:03.697Z,102624.34
2023-02-15T19:19:58.974Z,102460.97
2023-02-15T19:24:53.821Z,102656.91
2023-02-15T19:29:49.129Z,102594.44
2023-02-15T19:34:42.272Z,102622.69
2023-02-15T19:39:40.625Z,102615.00
2023-02-15T19:44:33.854Z,102590.16
2023-02-15T19:49:29.538Z,102659.53
2023-02-15T19:54:36.391Z,102662.09
2023-02-15T19:59:32.680Z,102644.13
2023-02-15T20:04:27.075Z,102563.66
2023-02-15T20:09:26.471Z,102603.06
2023-02-15T20:14:19.983Z,102643.31
2023-02-15T20:19:15.109Z,102627.88
2023-02-15T20:24:09.172Z,102576.50
2023-02-15T20:29:03.927Z,102615.03
2023-02-15T20:33:58.641Z,102659.59
2023-02-15T20:38:52.193Z,102657.00
2023-02-15T20:43:45.903Z,102610.75
2023-02-15T20:48:40.594Z,102636.44
2023-02-15T20:53:34.030Z,102607.31
2023-02-15T20:58:29.311Z,102550.78
2023-02-15T21:03:26.553Z,102591.91
2023-02-15T21:08:23.405Z,102646.72
2023-02-15T21:13:23.242Z,102644.13
2023-02-15T21:18:18.825Z,102652.69
2023-02-15T21:23:15.320Z,102649.25
2023-02-15T21:28:17.341Z,102457.38
2023-02-15T21:33:10.707Z,102525.88
2023-02-15T21:38:03.852Z,102626.06
2023-02-15T21:43:16.888Z,102602.94
2023-02-15T21:48:11.493Z,102643.19
2023-02-15T21:53:05.636Z,102650.91
2023-02-15T21:57:58.857Z,102594.38
2023-02-15T22:02:55.043Z,102644.06
2023-02-15T22:07:50.118Z,102649.19
2023-02-15T22:12:44.587Z,102668.88
2023-02-15T22:17:37.977Z,102628.56
2023-02-15T22:22:33.519Z,102680.00
2023-02-15T22:27:31.769Z,102668.84
2023-02-15T22:32:27.139Z,102663.69
2023-02-15T22:37:20.664Z,102684.25
2023-02-15T22:42:27.307Z,102692.81
2023-02-15T22:47:24.780Z,102691.94
2023-02-15T22:52:20.860Z,102663.69
2023-02-15T22:57:19.678Z,102491.44
2023-02-15T23:02:15.592Z,102680.00
2023-02-15T23:07:14.418Z,102638.84
2023-02-15T23:12:23.547Z,102633.69
2023-02-15T23:17:16.773Z,102676.56
2023-02-15T23:22:14.282Z,102616.53
2023-02-15T23:27:21.241Z,102554.75
2023-02-15T23:32:15.916Z,102673.84
2023-02-15T23:37:14.056Z,102566.53
2023-02-15T23:42:11.253Z,102621.34
2023-02-15T23:47:05.113Z,102662.44
2023-02-15T23:51:59.086Z,102677.81
2023-02-15T23:56:56.260Z,102649.41
